sensor_id;sensor_type;location;lat;lon;timestamp;P1;durP1;ratioP1;P2;durP2;ratioP2
11422;SDS011;5768;51.476;7.210;2023-02-10T00:01:55;19.67;;;15.23;;
11422;SDS011;5768;51.476;7.210;2023-02-10T00:06:57;24.90;;;19.80;;
11422;SDS011;5768;51.476;7.210;2023-02-10T00:11:59;23.53;;;18.30;;
11422;SDS011;5768;51.476;7.210;2023-02-10T00:17:03;25.53;;;18.87;;
11422;SDS011;5768;51.476;7.210;2023-02-10T00:22:05;25.83;;;20.33;;
11422;SDS011;5768;51.476;7.210;2023-02-10T00:27:07;27.03;;;20.80;;
11422;SDS011;5768;51.476;7.210;2023-02-10T00:32:11;27.43;;;21.07;;
11422;SDS011;5768;51.476;7.210;2023-02-10T00:37:13;27.00;;;21.13;;
11422;SDS011;5768;51.476;7.210;2023-02-10T00:42:16;28.63;;;22.20;;
11422;SDS011;5768;51.476;7.210;2023-02-10T00:47:19;22.10;;;15.97;;
11422;SDS011;5768;51.476;7.210;2023-02-10T00:52:33;27.37;;;21.37;;
11422;SDS011;5768;51.476;7.210;2023-02-10T00:57:35;26.47;;;20.80;;
11422;SDS011;5768;51.476;7.210;2023-02-10T01:02:38;29.80;;;21.50;;
11422;SDS011;5768;51.476;7.210;2023-02-10T01:07:43;26.57;;;21.77;;
11422;SDS011;5768;51.476;7.210;2023-02-10T01:12:45;26.37;;;20.50;;
11422;SDS011;5768;51.476;7.210;2023-02-10T01:17:52;27.90;;;21.77;;
11422;SDS011;5768;51.476;7.210;2023-02-10T01:22:55;29.53;;;22.83;;
11422;SDS011;5768;51.476;7.210;2023-02-10T01:27:57;29.13;;;22.20;;
11422;SDS011;5768;51.476;7.210;2023-02-10T01:33:00;29.50;;;23.83;;
11422;SDS011;5768;51.476;7.210;2023-02-10T01:38:03;32.60;;;23.00;;
11422;SDS011;5768;51.476;7.210;2023-02-10T01:43:08;28.27;;;22.60;;
11422;SDS011;5768;51.476;7.210;2023-02-10T01:48:16;28.73;;;21.83;;
11422;SDS011;5768;51.476;7.210;2023-02-10T01:53:18;29.67;;;22.97;;
11422;SDS011;5768;51.476;7.210;2023-02-10T01:58:24;27.97;;;22.17;;
11422;SDS011;5768;51.476;7.210;2023-02-10T02:03:33;31.13;;;22.87;;
11422;SDS011;5768;51.476;7.210;2023-02-10T02:08:36;28.10;;;22.27;;
11422;SDS011;5768;51.476;7.210;2023-02-10T02:13:47;28.93;;;22.17;;
11422;SDS011;5768;51.476;7.210;2023-02-10T02:25:40;30.87;;;22.17;;
11422;SDS011;5768;51.476;7.210;2023-02-10T02:31:52;31.67;;;23.93;;
11422;SDS011;5768;51.476;7.210;2023-02-10T02:37:03;32.47;;;23.37;;
11422;SDS011;5768;51.476;7.210;2023-02-10T02:42:14;32.97;;;24.13;;
11422;SDS011;5768;51.476;7.210;2023-02-10T02:47:32;35.00;;;24.90;;
11422;SDS011;5768;51.476;7.210;2023-02-10T02:52:56;33.13;;;23.60;;
11422;SDS011;5768;51.476;7.210;2023-02-10T02:58:11;36.17;;;26.43;;
11422;SDS011;5768;51.476;7.210;2023-02-10T03:03:27;37.33;;;25.87;;
11422;SDS011;5768;51.476;7.210;2023-02-10T03:08:29;33.40;;;25.47;;
11422;SDS011;5768;51.476;7.210;2023-02-10T03:13:35;30.57;;;24.00;;
11422;SDS011;5768;51.476;7.210;2023-02-10T03:18:39;33.17;;;24.40;;
11422;SDS011;5768;51.476;7.210;2023-02-10T03:23:41;32.40;;;24.10;;
11422;SDS011;5768;51.476;7.210;2023-02-10T03:28:43;35.30;;;24.73;;
11422;SDS011;5768;51.476;7.210;2023-02-10T03:33:47;33.57;;;25.20;;
11422;SDS011;5768;51.476;7.210;2023-02-10T03:38:49;33.20;;;25.97;;
11422;SDS011;5768;51.476;7.210;2023-02-10T03:43:52;33.20;;;24.20;;
11422;SDS011;5768;51.476;7.210;2023-02-10T03:48:55;31.30;;;25.13;;
11422;SDS011;5768;51.476;7.210;2023-02-10T03:53:57;37.07;;;26.33;;
11422;SDS011;5768;51.476;7.210;2023-02-10T03:59:00;35.60;;;26.47;;
11422;SDS011;5768;51.476;7.210;2023-02-10T04:04:04;39.30;;;27.23;;
11422;SDS011;5768;51.476;7.210;2023-02-10T04:09:06;35.70;;;26.13;;
11422;SDS011;5768;51.476;7.210;2023-02-10T04:14:08;37.20;;;27.70;;
11422;SDS011;5768;51.476;7.210;2023-02-10T04:19:11;40.47;;;28.17;;
11422;SDS011;5768;51.476;7.210;2023-02-10T04:24:13;41.00;;;28.90;;
11422;SDS011;5768;51.476;7.210;2023-02-10T04:29:15;37.23;;;27.33;;
11422;SDS011;5768;51.476;7.210;2023-02-10T04:34:19;36.53;;;27.27;;
11422;SDS011;5768;51.476;7.210;2023-02-10T04:39:21;35.93;;;27.00;;
11422;SDS011;5768;51.476;7.210;2023-02-10T04:44:23;37.57;;;27.67;;
11422;SDS011;5768;51.476;7.210;2023-02-10T04:49:27;40.27;;;27.03;;
11422;SDS011;5768;51.476;7.210;2023-02-10T04:54:29;37.63;;;27.87;;
11422;SDS011;5768;51.476;7.210;2023-02-10T04:59:31;40.13;;;28.40;;
11422;SDS011;5768;51.476;7.210;2023-02-10T05:04:35;42.47;;;28.43;;
11422;SDS011;5768;51.476;7.210;2023-02-10T05:09:37;39.87;;;27.50;;
11422;SDS011;5768;51.476;7.210;2023-02-10T05:14:39;36.27;;;27.03;;
11422;SDS011;5768;51.476;7.210;2023-02-10T05:19:42;38.37;;;27.37;;
11422;SDS011;5768;51.476;7.210;2023-02-10T05:24:47;38.17;;;27.47;;
11422;SDS011;5768;51.476;7.210;2023-02-10T05:29:51;33.60;;;26.83;;
11422;SDS011;5768;51.476;7.210;2023-02-10T05:34:55;35.97;;;26.60;;
11422;SDS011;5768;51.476;7.210;2023-02-10T05:39:57;38.77;;;28.37;;
11422;SDS011;5768;51.476;7.210;2023-02-10T05:44:59;38.33;;;28.50;;
11422;SDS011;5768;51.476;7.210;2023-02-10T05:50:02;38.40;;;26.53;;
11422;SDS011;5768;51.476;7.210;2023-02-10T05:55:05;37.83;;;27.50;;
11422;SDS011;5768;51.476;7.210;2023-02-10T06:00:08;34.07;;;26.17;;
11422;SDS011;5768;51.476;7.210;2023-02-10T06:05:13;33.10;;;26.07;;
11422;SDS011;5768;51.476;7.210;2023-02-10T06:10:15;33.93;;;26.03;;
11422;SDS011;5768;51.476;7.210;2023-02-10T06:15:19;34.57;;;26.03;;
11422;SDS011;5768;51.476;7.210;2023-02-10T06:20:22;38.20;;;28.80;;
11422;SDS011;5768;51.476;7.210;2023-02-10T06:25:24;39.20;;;27.93;;
11422;SDS011;5768;51.476;7.210;2023-02-10T06:30:26;55.53;;;40.67;;
11422;SDS011;5768;51.476;7.210;2023-02-10T06:35:30;35.93;;;26.73;;
11422;SDS011;5768;51.476;7.210;2023-02-10T06:40:31;34.17;;;26.13;;
11422;SDS011;5768;51.476;7.210;2023-02-10T06:45:34;36.03;;;25.57;;
11422;SDS011;5768;51.476;7.210;2023-02-10T06:50:38;33.83;;;25.27;;
11422;SDS011;5768;51.476;7.210;2023-02-10T06:55:40;34.17;;;24.10;;
11422;SDS011;5768;51.476;7.210;2023-02-10T07:00:42;40.30;;;28.80;;
11422;SDS011;5768;51.476;7.210;2023-02-10T07:05:46;36.90;;;27.20;;
11422;SDS011;5768;51.476;7.210;2023-02-10T07:10:48;42.13;;;28.43;;
11422;SDS011;5768;51.476;7.210;2023-02-10T07:15:50;38.13;;;27.87;;
11422;SDS011;5768;51.476;7.210;2023-02-10T07:20:53;34.23;;;26.23;;
11422;SDS011;5768;51.476;7.210;2023-02-10T07:25:56;34.30;;;25.00;;
11422;SDS011;5768;51.476;7.210;2023-02-10T07:30:58;34.47;;;26.07;;
11422;SDS011;5768;51.476;7.210;2023-02-10T07:36:01;36.33;;;26.33;;
11422;SDS011;5768;51.476;7.210;2023-02-10T07:41:05;38.30;;;26.97;;
11422;SDS011;5768;51.476;7.210;2023-02-10T07:46:08;37.83;;;26.77;;
11422;SDS011;5768;51.476;7.210;2023-02-10T07:51:11;37.10;;;26.73;;
11422;SDS011;5768;51.476;7.210;2023-02-10T07:56:13;40.63;;;28.13;;
11422;SDS011;5768;51.476;7.210;2023-02-10T08:01:15;37.20;;;24.00;;
11422;SDS011;5768;51.476;7.210;2023-02-10T08:06:19;37.60;;;24.50;;
11422;SDS011;5768;51.476;7.210;2023-02-10T08:11:23;37.63;;;26.77;;
11422;SDS011;5768;51.476;7.210;2023-02-10T08:16:25;33.73;;;24.23;;
11422;SDS011;5768;51.476;7.210;2023-02-10T08:21:28;36.03;;;26.30;;
11422;SDS011;5768;51.476;7.210;2023-02-10T08:26:30;37.13;;;25.37;;
11422;SDS011;5768;51.476;7.210;2023-02-10T08:31:33;40.10;;;28.33;;
11422;SDS011;5768;51.476;7.210;2023-02-10T08:36:36;39.97;;;27.73;;
11422;SDS011;5768;51.476;7.210;2023-02-10T08:41:39;33.70;;;25.03;;
11422;SDS011;5768;51.476;7.210;2023-02-10T08:46:41;34.83;;;27.00;;
11422;SDS011;5768;51.476;7.210;2023-02-10T08:51:45;39.00;;;28.03;;
11422;SDS011;5768;51.476;7.210;2023-02-10T08:56:48;36.17;;;27.37;;
11422;SDS011;5768;51.476;7.210;2023-02-10T09:01:54;37.50;;;25.03;;
11422;SDS011;5768;51.476;7.210;2023-02-10T09:06:58;29.67;;;21.43;;
11422;SDS011;5768;51.476;7.210;2023-02-10T09:12:00;34.63;;;25.07;;
11422;SDS011;5768;51.476;7.210;2023-02-10T09:17:02;35.67;;;27.33;;
11422;SDS011;5768;51.476;7.210;2023-02-10T09:22:06;33.50;;;26.17;;
11422;SDS011;5768;51.476;7.210;2023-02-10T09:27:08;33.20;;;24.03;;
11422;SDS011;5768;51.476;7.210;2023-02-10T09:32:10;26.70;;;18.80;;
11422;SDS011;5768;51.476;7.210;2023-02-10T09:37:16;30.97;;;19.47;;
11422;SDS011;5768;51.476;7.210;2023-02-10T09:42:25;27.10;;;18.30;;
11422;SDS011;5768;51.476;7.210;2023-02-10T09:47:46;38.10;;;25.03;;
11422;SDS011;5768;51.476;7.210;2023-02-10T09:52:57;29.03;;;19.77;;
11422;SDS011;5768;51.476;7.210;2023-02-10T09:58:20;35.87;;;24.93;;
11422;SDS011;5768;51.476;7.210;2023-02-10T10:03:37;22.20;;;13.23;;
11422;SDS011;5768;51.476;7.210;2023-02-10T10:08:47;34.70;;;24.37;;
11422;SDS011;5768;51.476;7.210;2023-02-10T10:14:00;34.80;;;23.83;;
11422;SDS011;5768;51.476;7.210;2023-02-10T10:19:06;32.67;;;24.00;;
11422;SDS011;5768;51.476;7.210;2023-02-10T10:24:32;31.73;;;21.87;;
11422;SDS011;5768;51.476;7.210;2023-02-10T10:29:52;35.00;;;23.43;;
11422;SDS011;5768;51.476;7.210;2023-02-10T10:34:56;36.03;;;23.53;;
11422;SDS011;5768;51.476;7.210;2023-02-10T10:40:03;32.87;;;24.23;;
11422;SDS011;5768;51.476;7.210;2023-02-10T10:45:17;19.80;;;14.37;;
11422;SDS011;5768;51.476;7.210;2023-02-10T10:50:26;29.10;;;20.73;;
11422;SDS011;5768;51.476;7.210;2023-02-10T10:55:33;33.83;;;23.87;;
11422;SDS011;5768;51.476;7.210;2023-02-10T11:00:48;32.80;;;16.77;;
11422;SDS011;5768;51.476;7.210;2023-02-10T11:05:57;32.27;;;24.03;;
11422;SDS011;5768;51.476;7.210;2023-02-10T11:11:05;26.27;;;18.80;;
11422;SDS011;5768;51.476;7.210;2023-02-10T11:16:10;31.37;;;23.27;;
11422;SDS011;5768;51.476;7.210;2023-02-10T11:21:16;35.60;;;23.13;;
11422;SDS011;5768;51.476;7.210;2023-02-10T11:26:20;33.07;;;21.90;;
11422;SDS011;5768;51.476;7.210;2023-02-10T11:31:28;28.70;;;22.57;;
11422;SDS011;5768;51.476;7.210;2023-02-10T11:36:35;30.13;;;23.00;;
11422;SDS011;5768;51.476;7.210;2023-02-10T11:41:41;26.27;;;20.23;;
11422;SDS011;5768;51.476;7.210;2023-02-10T11:46:43;25.87;;;19.47;;
11422;SDS011;5768;51.476;7.210;2023-02-10T11:51:58;28.70;;;18.53;;
11422;SDS011;5768;51.476;7.210;2023-02-10T11:57:14;27.33;;;20.70;;
11422;SDS011;5768;51.476;7.210;2023-02-10T12:02:48;29.07;;;20.77;;
11422;SDS011;5768;51.476;7.210;2023-02-10T12:08:31;24.40;;;14.93;;
11422;SDS011;5768;51.476;7.210;2023-02-10T12:13:44;25.87;;;18.33;;
11422;SDS011;5768;51.476;7.210;2023-02-10T12:19:03;26.37;;;17.90;;
11422;SDS011;5768;51.476;7.210;2023-02-10T12:24:23;21.13;;;14.37;;
11422;SDS011;5768;51.476;7.210;2023-02-10T12:29:47;30.33;;;19.33;;
11422;SDS011;5768;51.476;7.210;2023-02-10T12:35:09;27.87;;;19.43;;
11422;SDS011;5768;51.476;7.210;2023-02-10T12:40:39;26.20;;;18.70;;
11422;SDS011;5768;51.476;7.210;2023-02-10T12:45:57;25.17;;;18.10;;
11422;SDS011;5768;51.476;7.210;2023-02-10T12:51:16;21.20;;;16.63;;
11422;SDS011;5768;51.476;7.210;2023-02-10T12:56:33;24.67;;;16.57;;
11422;SDS011;5768;51.476;7.210;2023-02-10T13:01:45;22.83;;;17.10;;
11422;SDS011;5768;51.476;7.210;2023-02-10T13:06:54;22.60;;;16.00;;
11422;SDS011;5768;51.476;7.210;2023-02-10T13:12:06;21.53;;;16.30;;
11422;SDS011;5768;51.476;7.210;2023-02-10T13:17:18;21.73;;;14.87;;
11422;SDS011;5768;51.476;7.210;2023-02-10T13:22:22;21.43;;;15.87;;
11422;SDS011;5768;51.476;7.210;2023-02-10T13:27:38;20.33;;;14.00;;
11422;SDS011;5768;51.476;7.210;2023-02-10T13:32:59;18.80;;;10.00;;
11422;SDS011;5768;51.476;7.210;2023-02-10T13:38:14;21.43;;;12.73;;
11422;SDS011;5768;51.476;7.210;2023-02-10T13:43:23;16.87;;;11.90;;
11422;SDS011;5768;51.476;7.210;2023-02-10T13:48:31;15.23;;;10.77;;
11422;SDS011;5768;51.476;7.210;2023-02-10T13:53:38;15.67;;;10.90;;
11422;SDS011;5768;51.476;7.210;2023-02-10T13:58:49;16.05;;;10.65;;
11422;SDS011;5768;51.476;7.210;2023-02-10T14:03:55;9.73;;;6.33;;
11422;SDS011;5768;51.476;7.210;2023-02-10T14:09:01;13.63;;;8.50;;
11422;SDS011;5768;51.476;7.210;2023-02-10T14:14:18;13.30;;;9.10;;
11422;SDS011;5768;51.476;7.210;2023-02-10T14:19:33;17.87;;;12.33;;
11422;SDS011;5768;51.476;7.210;2023-02-10T14:24:42;20.63;;;12.43;;
11422;SDS011;5768;51.476;7.210;2023-02-10T14:29:47;21.97;;;12.47;;
11422;SDS011;5768;51.476;7.210;2023-02-10T14:34:58;21.47;;;15.53;;
11422;SDS011;5768;51.476;7.210;2023-02-10T14:40:02;19.03;;;13.50;;
11422;SDS011;5768;51.476;7.210;2023-02-10T14:45:06;20.20;;;14.90;;
11422;SDS011;5768;51.476;7.210;2023-02-10T14:50:23;19.23;;;14.13;;
11422;SDS011;5768;51.476;7.210;2023-02-10T14:55:29;21.17;;;15.33;;
11422;SDS011;5768;51.476;7.210;2023-02-10T15:00:34;18.40;;;14.90;;
11422;SDS011;5768;51.476;7.210;2023-02-10T15:05:43;20.60;;;15.20;;
11422;SDS011;5768;51.476;7.210;2023-02-10T15:10:50;22.27;;;14.10;;
11422;SDS011;5768;51.476;7.210;2023-02-10T15:15:56;20.67;;;14.83;;
11422;SDS011;5768;51.476;7.210;2023-02-10T15:21:04;24.03;;;15.50;;
11422;SDS011;5768;51.476;7.210;2023-02-10T15:26:24;21.77;;;15.73;;
11422;SDS011;5768;51.476;7.210;2023-02-10T15:31:28;20.63;;;14.00;;
11422;SDS011;5768;51.476;7.210;2023-02-10T15:36:34;21.33;;;16.90;;
11422;SDS011;5768;51.476;7.210;2023-02-10T15:41:56;21.13;;;14.47;;
11422;SDS011;5768;51.476;7.210;2023-02-10T15:47:18;20.67;;;16.20;;
11422;SDS011;5768;51.476;7.210;2023-02-10T15:52:25;23.27;;;16.40;;
11422;SDS011;5768;51.476;7.210;2023-02-10T15:57:30;19.27;;;14.23;;
11422;SDS011;5768;51.476;7.210;2023-02-10T16:02:32;23.83;;;16.70;;
11422;SDS011;5768;51.476;7.210;2023-02-10T16:07:36;22.43;;;16.60;;
11422;SDS011;5768;51.476;7.210;2023-02-10T16:12:38;60.17;;;40.63;;
11422;SDS011;5768;51.476;7.210;2023-02-10T16:17:41;21.33;;;16.20;;
11422;SDS011;5768;51.476;7.210;2023-02-10T16:22:48;23.47;;;17.10;;
11422;SDS011;5768;51.476;7.210;2023-02-10T16:27:50;22.47;;;16.63;;
11422;SDS011;5768;51.476;7.210;2023-02-10T16:32:53;18.60;;;16.20;;
11422;SDS011;5768;51.476;7.210;2023-02-10T16:37:58;21.17;;;16.63;;
11422;SDS011;5768;51.476;7.210;2023-02-10T16:43:00;22.50;;;17.50;;
11422;SDS011;5768;51.476;7.210;2023-02-10T16:48:02;21.10;;;16.73;;
11422;SDS011;5768;51.476;7.210;2023-02-10T16:53:07;22.93;;;16.33;;
11422;SDS011;5768;51.476;7.210;2023-02-10T16:58:12;23.53;;;17.60;;
11422;SDS011;5768;51.476;7.210;2023-02-10T17:03:16;25.33;;;17.73;;
11422;SDS011;5768;51.476;7.210;2023-02-10T17:08:20;24.63;;;18.43;;
11422;SDS011;5768;51.476;7.210;2023-02-10T17:13:27;26.93;;;16.70;;
11422;SDS011;5768;51.476;7.210;2023-02-10T17:18:29;21.70;;;15.83;;
11422;SDS011;5768;51.476;7.210;2023-02-10T17:23:33;18.80;;;15.57;;
11422;SDS011;5768;51.476;7.210;2023-02-10T17:28:35;19.80;;;15.47;;
11422;SDS011;5768;51.476;7.210;2023-02-10T17:33:37;24.57;;;15.83;;
11422;SDS011;5768;51.476;7.210;2023-02-10T17:38:41;17.03;;;13.60;;
11422;SDS011;5768;51.476;7.210;2023-02-10T17:43:50;18.70;;;13.63;;
11422;SDS011;5768;51.476;7.210;2023-02-10T17:48:55;18.37;;;14.37;;
11422;SDS011;5768;51.476;7.210;2023-02-10T17:53:59;30.77;;;20.73;;
11422;SDS011;5768;51.476;7.210;2023-02-10T17:59:01;15.27;;;12.67;;
11422;SDS011;5768;51.476;7.210;2023-02-10T18:04:03;17.23;;;12.87;;
11422;SDS011;5768;51.476;7.210;2023-02-10T18:09:08;19.43;;;13.83;;
11422;SDS011;5768;51.476;7.210;2023-02-10T18:14:11;16.10;;;11.90;;
11422;SDS011;5768;51.476;7.210;2023-02-10T18:19:13;14.53;;;9.80;;
11422;SDS011;5768;51.476;7.210;2023-02-10T18:24:16;15.73;;;12.80;;
11422;SDS011;5768;51.476;7.210;2023-02-10T18:29:18;17.97;;;13.47;;
11422;SDS011;5768;51.476;7.210;2023-02-10T18:34:20;16.63;;;13.17;;
11422;SDS011;5768;51.476;7.210;2023-02-10T18:39:24;15.40;;;11.77;;
11422;SDS011;5768;51.476;7.210;2023-02-10T18:44:26;17.97;;;12.97;;
11422;SDS011;5768;51.476;7.210;2023-02-10T18:49:28;17.33;;;13.27;;
11422;SDS011;5768;51.476;7.210;2023-02-10T18:54:32;19.10;;;14.60;;
11422;SDS011;5768;51.476;7.210;2023-02-10T18:59:34;20.90;;;15.23;;
11422;SDS011;5768;51.476;7.210;2023-02-10T19:04:36;18.83;;;13.00;;
11422;SDS011;5768;51.476;7.210;2023-02-10T19:09:39;18.37;;;14.97;;
11422;SDS011;5768;51.476;7.210;2023-02-10T19:14:42;17.70;;;12.17;;
11422;SDS011;5768;51.476;7.210;2023-02-10T19:19:44;21.37;;;15.57;;
11422;SDS011;5768;51.476;7.210;2023-02-10T19:24:48;18.40;;;13.27;;
11422;SDS011;5768;51.476;7.210;2023-02-10T19:29:50;19.67;;;12.00;;
11422;SDS011;5768;51.476;7.210;2023-02-10T19:34:52;20.10;;;12.87;;
11422;SDS011;5768;51.476;7.210;2023-02-10T19:39:56;20.27;;;12.33;;
11422;SDS011;5768;51.476;7.210;2023-02-10T19:44:58;16.17;;;11.27;;
11422;SDS011;5768;51.476;7.210;2023-02-10T19:50:00;18.13;;;12.37;;
11422;SDS011;5768;51.476;7.210;2023-02-10T19:55:04;17.40;;;13.30;;
11422;SDS011;5768;51.476;7.210;2023-02-10T20:00:07;22.00;;;14.33;;
11422;SDS011;5768;51.476;7.210;2023-02-10T20:05:10;19.90;;;14.20;;
11422;SDS011;5768;51.476;7.210;2023-02-10T20:10:14;23.80;;;16.93;;
11422;SDS011;5768;51.476;7.210;2023-02-10T20:15:16;26.67;;;18.77;;
11422;SDS011;5768;51.476;7.210;2023-02-10T20:20:19;26.53;;;19.03;;
11422;SDS011;5768;51.476;7.210;2023-02-10T20:25:24;23.73;;;17.63;;
11422;SDS011;5768;51.476;7.210;2023-02-10T20:30:27;22.30;;;13.57;;
11422;SDS011;5768;51.476;7.210;2023-02-10T20:35:29;29.80;;;20.60;;
11422;SDS011;5768;51.476;7.210;2023-02-10T20:40:38;27.40;;;18.10;;
11422;SDS011;5768;51.476;7.210;2023-02-10T20:45:43;26.30;;;19.67;;
11422;SDS011;5768;51.476;7.210;2023-02-10T20:50:46;24.27;;;16.60;;
11422;SDS011;5768;51.476;7.210;2023-02-10T20:55:50;28.13;;;19.70;;
11422;SDS011;5768;51.476;7.210;2023-02-10T21:00:56;27.80;;;16.70;;
11422;SDS011;5768;51.476;7.210;2023-02-10T21:06:05;29.70;;;19.10;;
11422;SDS011;5768;51.476;7.210;2023-02-10T21:11:11;18.60;;;14.37;;
11422;SDS011;5768;51.476;7.210;2023-02-10T21:16:16;21.60;;;13.40;;
11422;SDS011;5768;51.476;7.210;2023-02-10T21:21:21;27.10;;;18.13;;
11422;SDS011;5768;51.476;7.210;2023-02-10T21:26:25;30.23;;;19.93;;
11422;SDS011;5768;51.476;7.210;2023-02-10T21:31:27;26.70;;;18.70;;
11422;SDS011;5768;51.476;7.210;2023-02-10T21:36:33;21.67;;;15.13;;
11422;SDS011;5768;51.476;7.210;2023-02-10T21:41:39;27.53;;;17.37;;
11422;SDS011;5768;51.476;7.210;2023-02-10T21:46:46;24.00;;;16.13;;
11422;SDS011;5768;51.476;7.210;2023-02-10T21:51:51;24.63;;;15.97;;
11422;SDS011;5768;51.476;7.210;2023-02-10T21:56:55;16.17;;;9.80;;
11422;SDS011;5768;51.476;7.210;2023-02-10T22:01:59;26.77;;;18.97;;
11422;SDS011;5768;51.476;7.210;2023-02-10T22:07:03;24.07;;;14.73;;
11422;SDS011;5768;51.476;7.210;2023-02-10T22:12:06;29.17;;;20.87;;
11422;SDS011;5768;51.476;7.210;2023-02-10T22:17:09;22.37;;;14.43;;
11422;SDS011;5768;51.476;7.210;2023-02-10T22:22:11;25.50;;;19.63;;
11422;SDS011;5768;51.476;7.210;2023-02-10T22:27:14;29.17;;;19.83;;
11422;SDS011;5768;51.476;7.210;2023-02-10T22:32:17;17.93;;;10.77;;
11422;SDS011;5768;51.476;7.210;2023-02-10T22:37:19;31.37;;;21.37;;
11422;SDS011;5768;51.476;7.210;2023-02-10T22:42:22;27.83;;;18.90;;
11422;SDS011;5768;51.476;7.210;2023-02-10T22:47:24;27.30;;;20.20;;
11422;SDS011;5768;51.476;7.210;2023-02-10T22:52:26;22.13;;;13.10;;
11422;SDS011;5768;51.476;7.210;2023-02-10T22:57:30;24.13;;;15.77;;
11422;SDS011;5768;51.476;7.210;2023-02-10T23:02:32;26.67;;;18.63;;
11422;SDS011;5768;51.476;7.210;2023-02-10T23:07:35;24.77;;;16.90;;
11422;SDS011;5768;51.476;7.210;2023-02-10T23:12:38;25.47;;;16.10;;
11422;SDS011;5768;51.476;7.210;2023-02-10T23:17:41;27.87;;;20.67;;
11422;SDS011;5768;51.476;7.210;2023-02-10T23:22:43;27.47;;;19.33;;
11422;SDS011;5768;51.476;7.210;2023-02-10T23:27:46;24.50;;;17.47;;
11422;SDS011;5768;51.476;7.210;2023-02-10T23:32:48;24.40;;;18.87;;
11422;SDS011;5768;51.476;7.210;2023-02-10T23:37:50;25.93;;;18.07;;
11422;SDS011;5768;51.476;7.210;2023-02-10T23:42:54;31.20;;;21.30;;
11422;SDS011;5768;51.476;7.210;2023-02-10T23:47:56;23.37;;;17.33;;
11422;SDS011;5768;51.476;7.210;2023-02-10T23:52:59;22.37;;;16.47;;
11422;SDS011;5768;51.476;7.210;2023-02-10T23:58:03;25.07;;;17.40;;
